Tiempo atmosférico en la estación meteorológica de Abenójar, Ciudad Real (718 m.)



Fecha
DESCASC
Temp. máxima en grados centígrados (hora)
DESCASC
Temp. mínima en grados centígrados (hora)
DESCASC
Temp. media en grados centígrados
DESCASC
Racha de viento máxima en m/sg (hora)
DESCASC
Velocidad máxima media en intervalos de 10 minutos(hora)
DESCASC
Precipitaciones diarias en mm
DESCASC
Precipitaciones de 00:00 a 06:00 en mm
DESCASC
Precipitaciones de 06:00 a 12:00 en mm
DESCASC
Precipitaciones de 12:00 a 18:00 en mm
DESCASC
Precipitaciones de 18:00 a 24:00 en mm
DESCASC
16-01-2020 15.3 (14:50) 5.7 (07:40) 10.5 7.5 (14:30) 4.44 (16:10) 0 0 0 0 0
15-01-2020 12.2 (13:40) 2.7 (04:20) 7.4 7.78 (13:40) 4.72 (14:30) 0 0 0 0 0
14-01-2020 9.7 (15:30) -0.7 (06:00) 4.5 6.39 (13:10) 3.61 (13:00) 0 0 0 0 0
13-01-2020 10.3 (15:20) -0.1 (08:50) 5.1 6.94 (15:10) 4.17 (15:50) 0 0 0 0 0
12-01-2020 11.6 (16:20) -0.3 (00:00) 5.7 3.33 (15:00) 2.22 (00:30) 0 0 0 0 0
11-01-2020 9.9 (16:10) -0.1 (00:00) 4.9 7.5 (12:20) 5 (11:50) 0 0 0 0 0
10-01-2020 -- (--) -- (--) -- -- (--) -- (--) -- -- 0 0 0
09-01-2020 12.8 (16:30) 0.7 (00:00) 6.8 6.67 (00:40) 4.72 (00:30) 0 0 0 0 0
08-01-2020 15.9 (14:50) 1.8 (00:00) 8.8 5.28 (23:40) 3.61 (04:40) 0 0 0 0 0
07-01-2020 13.6 (16:10) 1.4 (00:00) 7.5 5.28 (03:50) 4.17 (03:50) 0 0 0 0 0
06-01-2020 13.3 (15:30) 0.7 (00:00) 7 3.61 (12:00) 3.06 (21:00) 0 0 0 0 0
05-01-2020 10.2 (16:00) -0.8 (-00:0) 4.7 5.56 (16:10) 4.17 (15:30) 0 0 0 0 0
04-01-2020 8.1 (15:40) 2.1 (00:00) 5.1 8.33 (05:20) 4.72 (04:30) 0 0 0 0 0
03-01-2020 8.2 (16:40) 1.8 (00:00) 5 4.44 (23:59) 3.33 (23:59) 0 0 0 0 0
02-01-2020 13.5 (16:20) -1.5 (-00:0) 6 4.72 (07:40) 3.61 (00:50) 0 0 0 0 0
01-01-2020 8.8 (16:20) -0.3 (00:00) 4.3 4.44 (03:40) 3.06 (23:20) 0 0 0 0 0
31-12-2019 4.9 (16:20) 0.3 (00:00) 2.6 5.28 (07:10) 3.61 (07:20) 0 0 0 0 0
30-12-2019 -- (--) -- (--) -- -- (--) -- (--) -- 0 0 -- 0
29-12-2019 12.2 (16:10) 3 (00:00) 7.6 11.11 (07:50) 8.06 (08:10) 0 0 0 0 0
28-12-2019 14.5 (15:50) 4.9 (00:00) 9.7 8.89 (07:20) 6.11 (11:10) 0 0 0 0 0
27-12-2019 13.1 (15:40) 5.6 (00:00) 9.4 10.83 (09:00) 7.78 (05:20) 0 0 0 0 0
26-12-2019 13.8 (14:00) 5.6 (00:00) 9.7 7.5 (19:50) 5.83 (20:40) 0 0 0 0 0
25-12-2019 16.7 (16:20) 5.9 (00:00) 11.3 7.22 (01:30) 5 (00:30) 0 0 0 0 0
24-12-2019 -- (--) -- (--) -- -- (--) -- (--) -- 0 0 -- 0
23-12-2019 14.4 (16:10) 5.4 (00:00) 9.9 8.61 (02:10) 5 (03:10) 0 0 0 0 0
22-12-2019 13.2 (14:40) 9.7 (00:00) 11.4 19.72 (00:20) 12.78 (00:20) 0 0 0 0 0
21-12-2019 15.5 (16:00) 10.4 (00:00) 12.9 20.83 (22:10) 13.06 (22:00) 18.8 12.6 2 4.2 0
20-12-2019 13.6 (17:20) 12.1 (00:00) 12.9 18.06 (02:40) 9.72 (07:00) 30.8 14.2 4.2 1.6 10.8

Gráficas

Temp. máximas Temp. mínimas Temp. medias Precipitaciones Rachas de viento máximas Velocidades máximas media en intervalos de 10 minutos

Datos horarios

Fecha y hora oficial Temperatura (ºC) Velocidad del viento (km/h) Dirección del viento Racha (km/h) Dirección de racha Precipitación (mm) Presión (hPa) Tendencia (hPa) Humedad (%)
2020-01-18 23:00:00 9.9 23 Oeste 48 Oeste 0 -- -- 91
2020-01-18 22:00:00 10 21 Oeste 33 Sudoeste 0 -- -- 98
2020-01-18 21:00:00 10.1 19 Oeste 31 Sudoeste 0 -- -- 100
2020-01-18 20:00:00 9.9 13 Sudoeste 24 Sudoeste 0 -- -- 100
2020-01-18 19:00:00 9.3 13 Sudoeste 26 Sudoeste 0.4 -- -- 100
2020-01-18 18:00:00 9.3 15 Sudoeste 26 Sudoeste 0 -- -- 99
2020-01-18 17:00:00 9.6 13 Sudoeste 27 Oeste 0 -- -- 97
2020-01-18 16:00:00 9.5 10 Sudoeste 26 Sudoeste 0 -- -- 97
2020-01-18 15:00:00 8.9 9 Sudoeste 26 Sudoeste 0.4 -- -- 99
2020-01-18 14:00:00 8.5 11 Sur 21 Sudoeste 0 -- -- 98
2020-01-18 13:00:00 8.5 12 Sur 21 Sur 0.4 -- -- 98
2020-01-18 12:00:00 8.1 10 Sur 17 Sur 0.6 -- -- 98
2020-01-18 11:00:00 7.6 9 Sur 14 Sur 0 -- -- 98
2020-01-18 10:00:00 6.6 8 Este 15 Sudeste 0 -- -- 99
2020-01-18 09:00:00 6.8 6 Este 12 Nordeste 0.4 -- -- 98
2020-01-18 08:00:00 6.7 5 Norte 14 Nordeste 1.2 -- -- 98
2020-01-18 07:00:00 6.7 5 Este 7 Este 0.4 -- -- 98
2020-01-18 06:00:00 6.4 0 Calma 4 Sudoeste 0 -- -- 96
2020-01-18 05:00:00 6 2 Sudeste 8 Este 0 -- -- 97
2020-01-18 04:00:00 5.5 3 Sudeste 6 Este 0 -- -- 97
2020-01-18 03:00:00 5.5 0 Calma 4 Sur 0 -- -- 96
2020-01-18 02:00:00 5.6 3 Noroeste 9 Oeste 0 -- -- 93
2020-01-18 01:00:00 6.2 2 Este 8 Este 0 -- -- 94
2020-01-18 00:00:00 6.1 4 Nordeste 6 Este 0 -- -- 94
2020-01-17 23:00:00 5.8 3 Nordeste 4 Este 0 -- -- 95
2020-01-17 22:00:00 5.9 3 Nordeste 4 Nordeste 0 -- -- 93
2020-01-17 21:00:00 5.9 3 Noroeste 5 Noroeste 0 -- -- 91
2020-01-17 20:00:00 6.9 4 Noroeste 8 Noroeste 0 -- -- 85
2020-01-17 19:00:00 8.2 4 Norte 10 Noroeste 0 -- -- 82
2020-01-17 18:00:00 9.9 5 Noroeste 22 Noroeste 0 -- -- 77
2020-01-17 17:00:00 11.5 14 Noroeste 26 Oeste 0 -- -- 69
2020-01-17 16:00:00 11.9 14 Oeste 24 Oeste 0 -- -- 67
2020-01-17 15:00:00 11.6 15 Oeste 27 Oeste 0 -- -- 68
2020-01-17 14:00:00 11.9 17 Oeste 26 Oeste 0 -- -- 67
2020-01-17 13:00:00 11.2 12 Oeste 23 Oeste 0 -- -- 72
2020-01-17 12:00:00 9.7 10 Oeste 21 Noroeste 0 -- -- 84
2020-01-17 11:00:00 9.7 7 Sudoeste 15 Sudoeste 0 -- -- 86
2020-01-17 10:00:00 8.1 5 Sudoeste 12 Oeste 0 -- -- 87
2020-01-17 09:00:00 7.7 3 Sudoeste 6 Oeste 0 -- -- 83
2020-01-17 08:00:00 7.6 4 Oeste 8 Oeste 0 -- -- 80
2020-01-17 07:00:00 7.7 2 Oeste 5 Oeste 0 -- -- 78
2020-01-17 06:00:00 7.7 4 Oeste 9 Sudoeste 0 -- -- 77
2020-01-17 05:00:00 7.9 6 Sudoeste 21 Oeste 0 -- -- 73
2020-01-17 04:00:00 8.5 14 Sudoeste 26 Oeste 0 -- -- 66
2020-01-17 03:00:00 8.6 9 Sudoeste 21 Sudoeste 0 -- -- 61
2020-01-17 02:00:00 8.6 13 Oeste 22 Sudoeste 0 -- -- 60
2020-01-17 01:00:00 7.5 9 Sudoeste 18 Sur 0 -- -- 65
2020-01-17 00:00:00 7.7 7 Sudoeste 14 Sudoeste 0 -- -- 63
2020-01-16 23:00:00 6.4 6 Sudoeste 13 Sudoeste 0 -- -- 66
2020-01-16 22:00:00 7 4 Oeste 15 Sudoeste 0 -- -- 65
2020-01-16 21:00:00 8 8 Sudoeste 14 Sudoeste 0 -- -- 65
2020-01-16 20:00:00 8.9 8 Sudoeste 15 Sudoeste 0 -- -- 64
2020-01-16 19:00:00 9.2 5 Sur 9 Sur 0 -- -- 63
2020-01-16 18:00:00 12 4 Sudoeste 17 Sur 0 -- -- 53
2020-01-16 17:00:00 13.9 9 Sudoeste 24 Sudoeste 0 -- -- 44
2020-01-16 16:00:00 15.2 9 Sudoeste 24 Oeste 0 -- -- 40
2020-01-16 15:00:00 15.2 13 Sudoeste 27 Sudoeste 0 -- -- 39
2020-01-16 14:00:00 14.7 12 Sudoeste 20 Sudoeste 0 -- -- 43
2020-01-16 13:00:00 14.2 8 Sudoeste 16 Sudoeste 0 -- -- 53
2020-01-16 12:00:00 13 9 Sur 17 Sur 0 -- -- 58
2020-01-16 11:00:00 11.5 6 Sur 11 Sur 0 -- -- 66
2020-01-16 10:00:00 9.3 4 Sudeste 6 Sudeste 0 -- -- 77
2020-01-16 09:00:00 5.9 4 Este 8 Sudeste 0 -- -- 89
2020-01-16 08:00:00 6.1 4 Sudeste 9 Este 0 -- -- 89
2020-01-16 07:00:00 6.7 4 Este 10 Este 0 -- -- 86
2020-01-16 06:00:00 7.9 5 Este 8 Este 0 -- -- 84
2020-01-16 05:00:00 8 3 Este 7 Sudeste 0 -- -- 86
2020-01-16 04:00:00 7.5 3 Este 6 Este 0 -- -- 90
2020-01-16 03:00:00 7.7 3 Este 8 Este 0 -- -- 89
2020-01-16 02:00:00 7.7 2 Este 4 Sur 0 -- -- 89
2020-01-16 01:00:00 8.5 2 Sur 9 Sur 0 -- -- 85
2020-01-16 00:00:00 8.1 4 Sudeste 9 Sur 0 -- -- 84
2020-01-15 23:00:00 8.2 5 Sur 9 Sudeste 0 -- -- 83
2020-01-15 22:00:00 8 3 Sur 9 Sudoeste 0 -- -- 82
2020-01-15 21:00:00 8.6 2 Este 9 Sudoeste 0 -- -- 82
2020-01-15 20:00:00 9.4 4 Sudoeste 11 Sudoeste 0 -- -- 77
2020-01-15 19:00:00 8.9 3 Sur 8 Sudoeste 0 -- -- 80
2020-01-15 18:00:00 10.4 4 Sudoeste 13 Sudoeste 0 -- -- 74
2020-01-15 17:00:00 11 4 Sudoeste 14 Oeste 0 -- -- 73
2020-01-15 16:00:00 11.2 5 Sudoeste 23 Oeste 0 -- -- 70
2020-01-15 15:00:00 11.4 14 Oeste 26 Oeste 0 -- -- 67
2020-01-15 14:00:00 12.1 14 Oeste 28 Sudoeste 0 -- -- 63
2020-01-15 13:00:00 11 13 Sudoeste 26 Sudoeste 0 -- -- 68
2020-01-15 12:00:00 10.1 8 Sudoeste 14 Sudoeste 0 -- -- 69
2020-01-15 11:00:00 9.2 8 Sur 13 Sur 0 -- -- 75
2020-01-15 10:00:00 6.2 4 Sudeste 9 Sudeste 0 -- -- 85
2020-01-15 09:00:00 3.6 4 Sudeste 9 Sudeste 0 -- -- 93
2020-01-15 08:00:00 3.8 6 Sudeste 12 Sudeste 0 -- -- 93
2020-01-15 07:00:00 3.3 5 Este 12 Sudeste 0 -- -- 96
2020-01-15 06:00:00 2.8 4 Sudeste 8 Sudeste 0 -- -- 95
2020-01-15 05:00:00 2.9 3 Este 9 Sudeste 0 -- -- 96
2020-01-15 04:00:00 3.1 3 Sudeste 6 Nordeste 0 -- -- 91
2020-01-15 03:00:00 4.4 2 Noroeste 8 Sur 0 -- -- 90
2020-01-15 02:00:00 5.4 3 Sur 7 Sur 0 -- -- 86
2020-01-15 01:00:00 5.3 3 Sudeste 8 Sur 0 -- -- 87
2020-01-15 00:00:00 5.3 7 Sudeste 10 Sudeste 0 -- -- 87
2020-01-14 23:00:00 4.4 3 Sur 6 Sudeste 0 -- -- 91
2020-01-14 22:00:00 4.7 0 Calma 8 Sudeste 0 -- -- 88
2020-01-14 21:00:00 5.5 0 Calma 4 Sur 0 -- -- 90
2020-01-14 20:00:00 4.3 0 Calma 3 Oeste 0 -- -- 92
2020-01-14 19:00:00 5.8 0 Calma 3 Oeste 0 -- -- 83
2020-01-14 18:00:00 8.7 3 Sudoeste 9 Sur 0 -- -- 71
2020-01-14 17:00:00 9.4 4 Sur 11 Sudoeste 0 -- -- 68
2020-01-14 16:00:00 9.2 10 Sudoeste 19 Sudoeste 0 -- -- 66
2020-01-14 15:00:00 9.3 10 Oeste 20 Sudoeste 0 -- -- 65
2020-01-14 14:00:00 9.1 13 Oeste 23 Oeste 0 -- -- 68
2020-01-14 13:00:00 8.1 13 Oeste 22 Oeste 0 -- -- 73
2020-01-14 12:00:00 7.1 6 Sudoeste 12 Sudoeste 0 -- -- 80
2020-01-14 11:00:00 5.8 4 Sur 7 Sur 0 -- -- 84
2020-01-14 10:00:00 3.4 3 Sudeste 5 Sudeste 0 -- -- 97
2020-01-14 09:00:00 -0.4 3 Nordeste 5 Este 0 -- -- 99
2020-01-14 08:00:00 -0.6 3 Este 5 Sudeste 0 -- -- 98
2020-01-14 07:00:00 -0.6 3 Este 6 Nordeste 0 -- -- 97
2020-01-14 06:00:00 -0.7 4 Este 6 Nordeste 0 -- -- 96
2020-01-14 05:00:00 -0.4 4 Nordeste 5 Nordeste 0 -- -- 95
2020-01-14 04:00:00 -0.2 3 Nordeste 7 Nordeste 0 -- -- 94
2020-01-14 03:00:00 0.2 4 Nordeste 6 Nordeste 0 -- -- 94
2020-01-14 02:00:00 0.5 3 Norte 7 Nordeste 0 -- -- 92
2020-01-14 01:00:00 0.5 0 Calma 7 Nordeste 0 -- -- 92
2020-01-14 00:00:00 0.9 0 Calma 5 Noroeste 0 -- -- 93
2020-01-13 23:00:00 1.5 0 Calma 5 Norte 0 -- -- 91
2020-01-13 22:00:00 1.5 0 Calma 4 Nordeste 0 -- -- 92
2020-01-13 21:00:00 2.7 3 Nordeste 6 Noroeste 0 -- -- 87
2020-01-13 20:00:00 3.6 0 Calma 4 Noroeste 0 -- -- 84
2020-01-13 19:00:00 4.4 0 Calma 4 Oeste 0 -- -- 80
2020-01-13 18:00:00 7.4 4 Oeste 14 Oeste 0 -- -- 69
2020-01-13 17:00:00 9.2 9 Oeste 21 Oeste 0 -- -- 58
2020-01-13 16:00:00 10.1 14 Oeste 25 Oeste 0 -- -- 56
2020-01-13 15:00:00 10.2 13 Oeste 23 Sudoeste 0 -- -- 58
2020-01-13 14:00:00 9.4 10 Sudoeste 17 Sudoeste 0 -- -- 62
2020-01-13 13:00:00 8.2 7 Oeste 12 Oeste 0 -- -- 70
2020-01-13 12:00:00 7.3 3 Sur 6 Sur 0 -- -- 74
2020-01-13 11:00:00 4.8 2 Oeste 5 Oeste 0 -- -- 75
2020-01-13 10:00:00 2.5 4 Noroeste 9 Este 0 -- -- 82
2020-01-13 09:00:00 -0.1 3 Sudeste 11 Nordeste 0 -- -- 90
2020-01-13 08:00:00 0.7 6 Nordeste 13 Nordeste 0 -- -- 87
2020-01-13 07:00:00 1.1 7 Nordeste 15 Nordeste 0 -- -- 86
2020-01-13 06:00:00 1 7 Nordeste 10 Nordeste 0 -- -- 86
2020-01-13 05:00:00 2.3 8 Nordeste 15 Nordeste 0 -- -- 79
2020-01-13 04:00:00 2.4 8 Nordeste 15 Norte 0 -- -- 80
2020-01-13 03:00:00 2.9 13 Nordeste 18 Nordeste 0 -- -- 78
2020-01-13 02:00:00 3.3 11 Nordeste 17 Nordeste 0 -- -- 79
2020-01-13 01:00:00 3 10 Nordeste 13 Nordeste 0 -- -- 83
2020-01-13 00:00:00 2.4 7 Nordeste 9 Nordeste 0 -- -- 87
2020-01-12 23:00:00 2.5 2 Nordeste 7 Nordeste 0 -- -- 87
2020-01-12 22:00:00 3.6 4 Nordeste 6 Nordeste 0 -- -- 82
2020-01-12 21:00:00 3.7 5 Nordeste 10 Noroeste 0 -- -- 78
2020-01-12 20:00:00 4.7 6 Nordeste 8 Nordeste 0 -- -- 72
2020-01-12 19:00:00 5.7 5 Nordeste 6 Nordeste 0 -- -- 69
2020-01-12 18:00:00 10.3 2 Sur 9 Oeste 0 -- -- 50
2020-01-12 17:00:00 11 4 Sudoeste 12 Oeste 0 -- -- 46
2020-01-12 16:00:00 11.3 4 Oeste 10 Oeste 0 -- -- 45
2020-01-12 15:00:00 10.9 5 Noroeste 12 Oeste 0 -- -- 51
2020-01-12 14:00:00 11.2 4 Sudoeste 9 Sudoeste 0 -- -- 57
2020-01-12 13:00:00 10 3 Sudoeste 7 Sudoeste 0 -- -- 67
2020-01-12 12:00:00 7.4 3 Oeste 6 Oeste 0 -- -- 78
2020-01-12 11:00:00 5.3 3 Sudoeste 6 Oeste 0 -- -- 83
2020-01-12 10:00:00 3.1 4 Oeste 5 Oeste 0 -- -- 87
2020-01-12 09:00:00 0.9 4 Este 9 Nordeste 0 -- -- 92
2020-01-12 08:00:00 0.5 6 Nordeste 10 Nordeste 0 -- -- 91
2020-01-12 07:00:00 -0.2 4 Nordeste 7 Norte 0 -- -- 94
2020-01-12 06:00:00 0.3 3 Norte 8 Nordeste 0 -- -- 91
2020-01-12 05:00:00 0.3 5 Nordeste 7 Oeste 0 -- -- 92
2020-01-12 04:00:00 0.7 5 Nordeste 6 Nordeste 0 -- -- 90
2020-01-12 03:00:00 1.4 6 Nordeste 7 Nordeste 0 -- -- 88
2020-01-12 02:00:00 1.5 5 Nordeste 8 Nordeste 0 -- -- 88
2020-01-12 01:00:00 2.7 6 Nordeste 10 Este 0 -- -- 83
2020-01-12 00:00:00 2 5 Este 6 Este 0 -- -- 88
2020-01-11 23:00:00 2.6 0 Calma 6 Este 0 -- -- 85
2020-01-11 22:00:00 4.7 6 Este 14 Este 0 -- -- 76
2020-01-11 21:00:00 6 13 Este 15 Este 0 -- -- 71
2020-01-11 20:00:00 5.4 10 Nordeste 17 Nordeste 0 -- -- 74
2020-01-11 19:00:00 6.1 13 Nordeste 18 Este 0 -- -- 73
2020-01-11 18:00:00 8.5 9 Este 17 Este 0 -- -- 64
2020-01-11 17:00:00 9.6 10 Este 19 Este 0 -- -- 58
2020-01-11 16:00:00 9.8 13 Nordeste 24 Nordeste 0 -- -- 60
2020-01-11 15:00:00 9.3 16 Nordeste 23 Nordeste 0 -- -- 59
2020-01-11 14:00:00 8.8 13 Este 22 Este 0 -- -- 62
2020-01-11 13:00:00 7.6 16 Este 27 Este 0 -- -- 66
2020-01-11 12:00:00 6.6 15 Este 25 Este 0 -- -- 67
2020-01-11 11:00:00 5.2 14 Este 22 Este 0 -- -- 72
2020-01-11 10:00:00 2.2 2 Oeste 18 Este 0 -- -- 83
2020-01-11 09:00:00 0.1 14 Nordeste 21 Nordeste 0 -- -- 91
2020-01-11 08:00:00 0.4 9 Este 14 Este 0 -- -- 89
2020-01-11 07:00:00 0.1 5 Este 12 Este 0 -- -- 89
2020-01-11 06:00:00 0.7 9 Nordeste 12 Nordeste 0 -- -- 88
2020-01-11 05:00:00 1.1 8 Nordeste 17 Nordeste 0 -- -- 85
2020-01-11 04:00:00 2.3 14 Nordeste 20 Nordeste 0 -- -- 79
2020-01-11 03:00:00 2.2 10 Nordeste 15 Nordeste 0 -- -- 80
2020-01-11 02:00:00 1.7 4 Nordeste 15 Este 0 -- -- 82
2020-01-11 01:00:00 4 12 Este 16 Este 0 -- -- 72
2020-01-11 00:00:00 4.6 12 Este 17 Nordeste 0 -- -- 69
2020-01-10 23:00:00 5.2 9 Este 26 Nordeste 0 -- -- 67
2020-01-10 22:00:00 6.5 13 Nordeste 24 Nordeste 0 -- -- 61
2020-01-10 21:00:00 6.8 12 Nordeste 24 Norte 0 -- -- 59
2020-01-10 20:00:00 5.4 3 Este 16 Nordeste 0 -- -- 67
2020-01-10 19:00:00 5.9 4 Este 19 Nordeste 0 -- -- 69
2020-01-10 18:00:00 8.4 13 Nordeste 27 Nordeste 0 -- -- 56
2020-01-10 17:00:00 9.5 15 Nordeste 29 Nordeste 0 -- -- 49
2020-01-10 16:00:00 10.6 19 Nordeste 33 Nordeste 0 -- -- 43
2020-01-10 15:00:00 10.7 17 Nordeste 35 Nordeste 0 -- -- 49
2020-01-10 14:00:00 10.5 14 Nordeste 38 Nordeste 0 -- -- 53
2020-01-10 13:00:00 9.9 18 Nordeste 34 Este 0 -- -- 59
2020-01-10 12:00:00 8.5 13 Nordeste 23 Este 0 -- -- 67
2020-01-10 11:00:00 6.8 13 Nordeste 19 Nordeste 0 -- -- 79
2020-01-10 10:00:00 6.3 9 Nordeste 19 Nordeste 0 -- -- 84
2020-01-10 09:00:00 5.4 3 Este 8 Norte 0 -- -- 98
2020-01-10 08:00:00 5.6 5 Nordeste 9 Nordeste 0 -- -- 98
2020-01-10 07:00:00 5.4 0 Calma 3 Noroeste 0 -- -- 97
2020-01-10 06:00:00 5.7 0 Calma 5 Este 0 -- -- 97
2020-01-10 05:00:00 5.4 3 Nordeste 8 Nordeste 0 -- -- 97
2020-01-10 04:00:00 4.9 0 Calma 3 Noroeste 0 -- -- 97
2020-01-10 03:00:00 -- -- -- -- -- -- -- -- --
2020-01-10 02:00:00 -- -- -- -- -- -- -- -- --
2020-01-10 01:00:00 2.6 0 Calma 6 Oeste 0 -- -- 97
2020-01-10 00:00:00 2.9 0 Calma 3 Sudeste 0 -- -- 96
2020-01-09 23:00:00 4.1 2 Oeste 6 Oeste 0 -- -- 95
2020-01-09 22:00:00 5.5 5 Oeste 13 Oeste 0 -- -- 89
2020-01-09 21:00:00 5.6 9 Oeste 12 Oeste 0 -- -- 85
2020-01-09 20:00:00 4.9 4 Oeste 7 Oeste 0 -- -- 87
2020-01-09 19:00:00 7.4 4 Sudeste 8 Sudeste 0 -- -- 76
2020-01-09 18:00:00 10.6 5 Sudoeste 12 Oeste 0 -- -- 65
2020-01-09 17:00:00 12 9 Oeste 15 Oeste 0 -- -- 56
2020-01-09 16:00:00 12.2 9 Oeste 21 Oeste 0 -- -- 59
2020-01-09 15:00:00 11.8 13 Noroeste 19 Oeste 0 -- -- 67
2020-01-09 14:00:00 11.5 7 Oeste 12 Oeste 0 -- -- 64
2020-01-09 13:00:00 10 4 Sur 9 Oeste 0 -- -- 71
2020-01-09 12:00:00 6.5 7 Oeste 10 Oeste 0 -- -- 88
2020-01-09 11:00:00 5.2 2 Oeste 5 Oeste 0 -- -- 91
2020-01-09 10:00:00 2.8 0 Calma 10 Nordeste 0 -- -- 99
2020-01-09 09:00:00 0.7 6 Nordeste 11 Norte 0 -- -- 99
2020-01-09 08:00:00 1.2 3 Este 17 Norte 0 -- -- 99
2020-01-09 07:00:00 1.9 13 Nordeste 21 Nordeste 0 -- -- 99
2020-01-09 06:00:00 2.7 9 Nordeste 19 Nordeste 0 -- -- 99
2020-01-09 05:00:00 3.6 8 Nordeste 15 Nordeste 0 -- -- 95
2020-01-09 04:00:00 4.4 9 Nordeste 14 Nordeste 0 -- -- 95
2020-01-09 03:00:00 4.8 4 Este 17 Nordeste 0 -- -- 92
2020-01-09 02:00:00 5.6 13 Nordeste 17 Norte 0 -- -- 89
2020-01-09 01:00:00 6.6 3 Este 24 Este 0 -- -- 78
2020-01-09 00:00:00 7.9 11 Este 19 Este 0 -- -- 68
2020-01-08 23:00:00 6.9 6 Este 14 Este 0 -- -- 71
2020-01-08 22:00:00 7.1 4 Nordeste 13 Este 0 -- -- 70
2020-01-08 21:00:00 8 4 Nordeste 15 Nordeste 0 -- -- 66
2020-01-08 20:00:00 8.9 12 Nordeste 15 Nordeste 0 -- -- 62
2020-01-08 19:00:00 9.3 8 Nordeste 13 Norte 0 -- -- 64
2020-01-08 18:00:00 12 5 Este 12 Este 0 -- -- 57
2020-01-08 17:00:00 14.3 8 Este 11 Nordeste 0 -- -- 48
2020-01-08 16:00:00 15.2 4 Sudeste 13 Nordeste 0 -- -- 44
2020-01-08 15:00:00 15.7 7 Este 16 Este 0 -- -- 53
2020-01-08 14:00:00 14.3 0 Calma 6 Sudeste 0 -- -- 56
2020-01-08 13:00:00 13 4 Sur 9 Sudeste 0 -- -- 61
2020-01-08 12:00:00 11.1 6 Sur 9 Sur 0 -- -- 71
2020-01-08 11:00:00 7.9 5 Nordeste 14 Nordeste 0 -- -- 75
2020-01-08 10:00:00 5.7 2 Sur 6 Este 0 -- -- 85
2020-01-08 09:00:00 2.7 3 Nordeste 10 Nordeste 0 -- -- 90
2020-01-08 08:00:00 3.1 6 Nordeste 14 Nordeste 0 -- -- 89
2020-01-08 07:00:00 1.9 7 Nordeste 9 Nordeste 0 -- -- 95
2020-01-08 06:00:00 2.9 2 Este 14 Nordeste 0 -- -- 89
2020-01-08 05:00:00 4.9 10 Nordeste 15 Nordeste 0 -- -- 86
2020-01-08 04:00:00 2.6 4 Nordeste 6 Nordeste 0 -- -- 94
2020-01-08 03:00:00 3 3 Este 8 Nordeste 0 -- -- 92
2020-01-08 02:00:00 2.6 0 Calma 3 Norte 0 -- -- 94
2020-01-08 01:00:00 3.1 2 Norte 4 Nordeste 0 -- -- 93
2020-01-08 00:00:00 4.5 0 Calma 6 Nordeste 0 -- -- 85
2020-01-07 23:00:00 5 2 Norte 8 Nordeste 0 -- -- 84
2020-01-07 22:00:00 6.2 6 Nordeste 9 Nordeste 0 -- -- 80
2020-01-07 21:00:00 6.5 6 Nordeste 8 Nordeste 0 -- -- 73
2020-01-07 20:00:00 6.6 6 Nordeste 9 Nordeste 0 -- -- 67
2020-01-07 19:00:00 7.4 4 Nordeste 8 Nordeste 0 -- -- 69
2020-01-07 18:00:00 11.3 4 Nordeste 6 Sudeste 0 -- -- 58
2020-01-07 17:00:00 13.3 3 Nordeste 9 Nordeste 0 -- -- 52
2020-01-07 16:00:00 13.5 5 Nordeste 12 Nordeste 0 -- -- 48
2020-01-07 15:00:00 13 7 Nordeste 14 Nordeste 0 -- -- 53
2020-01-07 14:00:00 12.9 6 Nordeste 12 Sudeste 0 -- -- 54
2020-01-07 13:00:00 11.9 10 Sudeste 14 Sudeste 0 -- -- 54
2020-01-07 12:00:00 10.2 7 Este 13 Sudeste 0 -- -- 73
2020-01-07 11:00:00 7.4 2 Sudoeste 6 Nordeste 0 -- -- 88
2020-01-07 10:00:00 4.3 4 Sudeste 10 Nordeste 0 -- -- 93
2020-01-07 09:00:00 2 7 Nordeste 14 Nordeste 0 -- -- 98
2020-01-07 08:00:00 2.7 10 Nordeste 13 Nordeste 0 -- -- 98
2020-01-07 07:00:00 2.3 9 Nordeste 13 Nordeste 0 -- -- 98
2020-01-07 06:00:00 1.9 3 Oeste 8 Norte 0 -- -- 95
2020-01-07 05:00:00 2.9 5 Nordeste 16 Nordeste 0 -- -- 96
2020-01-07 04:00:00 4 13 Nordeste 19 Nordeste 0 -- -- 94
2020-01-07 03:00:00 4.5 5 Este 9 Nordeste 0 -- -- 93
2020-01-07 02:00:00 4.6 5 Nordeste 11 Nordeste 0 -- -- 90
2020-01-07 01:00:00 3.1 3 Nordeste 6 Nordeste 0 -- -- 94
2020-01-07 00:00:00 3.5 4 Nordeste 6 Nordeste 0 -- -- 93
2020-01-06 23:00:00 4.8 0 Calma 9 Nordeste 0 -- -- 87
2020-01-06 22:00:00 6 9 Nordeste 12 Nordeste 0 -- -- 85
2020-01-06 21:00:00 7.1 11 Nordeste 12 Nordeste 0 -- -- 82
2020-01-06 20:00:00 6.9 7 Nordeste 9 Nordeste 0 -- -- 85
2020-01-06 19:00:00 7.7 7 Nordeste 9 Nordeste 0 -- -- 84
2020-01-06 18:00:00 10.9 2 Este 5 Nordeste 0 -- -- 71
2020-01-06 17:00:00 12.4 4 Oeste 8 Noroeste 0 -- -- 47
2020-01-06 16:00:00 13 3 Sudoeste 8 Oeste 0 -- -- 53
2020-01-06 15:00:00 12.6 4 Sudoeste 9 Oeste 0 -- -- 61
2020-01-06 14:00:00 10.9 5 Oeste 9 Noroeste 0 -- -- 79
2020-01-06 13:00:00 8.6 6 Oeste 11 Oeste 0 -- -- 86
2020-01-06 12:00:00 5.4 10 Oeste 13 Oeste 0 -- -- 91
2020-01-06 11:00:00 7 5 Sudeste 6 Sudeste 0 -- -- 89
2020-01-06 10:00:00 4 5 Nordeste 9 Nordeste 0 -- -- 98